Time;durP1;ratioP1;P1;durP2;ratioP2;P2;SDS_P1;SDS_P2;PMS_P1;PMS_P2;Temp;Humidity;BMP_temperature;BMP_pressure;BME280_temperature;BME280_humidity;BME280_pressure;Samples;Min_cycle;Max_cycle;Signal;HPM_P1;HPM_P2
2022/05/09 00:01:10;;;;;;;;;;;;;;;;;;5096198;28;20356;-70
2022/05/09 00:03:37;;;;;;;;;;;;;;;;;;5096666;28;19920;-70
2022/05/09 00:06:03;;;;;;;;;;;;;;;;;;5096575;28;19934;-69
2022/05/09 00:08:29;;;;;;;;;;;;;;;;;;5077910;28;19913;-69
2022/05/09 00:10:55;;;;;;;;;;;;;;;;;;5096491;28;19918;-69
2022/05/09 00:13:21;;;;;;;;;;;;;;;;;;5096361;28;19908;-69
2022/05/09 00:15:47;;;;;;;;;;;;;;;;;;5095940;28;19915;-69
2022/05/09 00:18:13;;;;;;;;;;;;;;;;;;5096225;28;20272;-70
2022/05/09 00:20:40;;;;;;;;;;;;;;;;;;5096239;28;19908;-69
2022/05/09 00:23:06;;;;;;;;;;;;;;;;;;5095744;28;19908;-70
2022/05/09 00:25:32;;;;;;;;;;;;;;;;;;5096130;28;20265;-71
2022/05/09 00:27:58;;;;;;;;;;;;;;;;;;5096118;28;19999;-70
2022/05/09 00:30:24;;;;;;;;;;;;;;;;;;5095639;28;19912;-70
2022/05/09 00:32:50;;;;;;;;;;;;;;;;;;5095986;28;19908;-70
2022/05/09 00:35:16;;;;;;;;;;;;;;;;;;5095989;28;19939;-70
2022/05/09 00:37:42;;;;;;;;;;;;;;;;;;5095500;28;20373;-70
2022/05/09 00:40:08;;;;;;;;;;;;;;;;;;5095944;28;19916;-69
2022/05/09 00:42:34;;;;;;;;;;;;;;;;;;5095777;28;19909;-70
2022/05/09 00:45:00;;;;;;;;;;;;;;;;;;5095138;28;20395;-70
2022/05/09 00:47:26;;;;;;;;;;;;;;;;;;5095721;28;19947;-70
2022/05/09 00:49:54;;;;;;;;;;;;;;;;;;5095688;28;19909;-70
2022/05/09 00:52:20;;;;;;;;;;;;;;;;;;5095200;28;19912;-70
2022/05/09 00:54:46;;;;;;;;;;;;;;;;;;5077972;28;20272;-70
2022/05/09 00:57:14;;;;;;;;;;;;;;;;;;5095603;28;20309;-71
2022/05/09 00:59:40;;;;;;;;;;;;;;;;;;5095478;28;20405;-70
2022/05/09 01:02:06;;;;;;;;;;;;;;;;;;5095438;28;19908;-70
2022/05/09 01:04:32;;;;;;;;;;;;;;;;;;5095268;28;19969;-70
2022/05/09 01:06:58;;;;;;;;;;;;;;;;;;5094690;28;19908;-70
2022/05/09 01:09:26;;;;;;;;;;;;;;;;;;5077051;28;19908;-70
2022/05/09 01:11:52;;;;;;;;;;;;;;;;;;5094838;28;19912;-70
2022/05/09 01:14:18;;;;;;;;;;;;;;;;;;5095263;28;20428;-70
2022/05/09 01:16:46;;;;;;;;;;;;;;;;;;5077019;28;19909;-70
2022/05/09 01:19:12;;;;;;;;;;;;;;;;;;5094729;28;19999;-70
2022/05/09 01:21:38;;;;;;;;;;;;;;;;;;5095091;28;19908;-70
2022/05/09 01:24:04;;;;;;;;;;;;;;;;;;5095064;28;19920;-70
2022/05/09 01:26:30;;;;;;;;;;;;;;;;;;5076385;28;19908;-71
2022/05/09 01:28:55;;;;;;;;;;;;;;;;;;5094887;28;20441;-71
2022/05/09 01:31:21;;;;;;;;;;;;;;;;;;5076664;28;19908;-71
2022/05/09 01:33:49;;;;;;;;;;;;;;;;;;5094432;28;20341;-70
2022/05/09 01:36:15;;;;;;;;;;;;;;;;;;5094860;28;19912;-70
2022/05/09 01:38:41;;;;;;;;;;;;;;;;;;5094715;28;19912;-70
2022/05/09 01:41:07;;;;;;;;;;;;;;;;;;5094312;28;19915;-70
2022/05/09 01:43:33;;;;;;;;;;;;;;;;;;5094459;28;20019;-70
2022/05/09 01:45:59;;;;;;;;;;;;;;;;;;5094716;28;19915;-70
2022/05/09 01:51:10;;;;;;;;;;;;;;;;;;5094575;28;19915;-70
2022/05/09 01:53:35;;;;;;;;;;;;;;;;;;5075943;28;19912;-70
2022/05/09 01:56:01;;;;;;;;;;;;;;;;;;5094419;28;19973;-71
2022/05/09 01:58:28;;;;;;;;;;;;;;;;;;5094368;28;19958;-71
2022/05/09 02:00:54;;;;;;;;;;;;;;;;;;5094042;28;19915;-71
2022/05/09 02:03:20;;;;;;;;;;;;;;;;;;5094231;28;19908;-71
2022/05/09 02:05:46;;;;;;;;;;;;;;;;;;5094871;28;20280;-71
2022/05/09 02:08:12;;;;;;;;;;;;;;;;;;5093885;28;19918;-71
2022/05/09 02:10:39;;;;;;;;;;;;;;;;;;5094293;28;19908;-71
2022/05/09 02:13:04;;;;;;;;;;;;;;;;;;5094591;28;20365;-71
2022/05/09 02:15:31;;;;;;;;;;;;;;;;;;5094124;28;19914;-71
2022/05/09 02:17:57;;;;;;;;;;;;;;;;;;5093931;28;20315;-71
2022/05/09 02:20:23;;;;;;;;;;;;;;;;;;5094150;28;20011;-71
2022/05/09 02:22:49;;;;;;;;;;;;;;;;;;5093834;28;19908;-71
2022/05/09 02:25:31;;;;;;;;;;;;;;;;;;5093865;28;19924;-71
2022/05/09 02:27:57;;;;;;;;;;;;;;;;;;5093934;28;19991;-71
2022/05/09 02:30:23;;;;;;;;;;;;;;;;;;5093658;28;19915;-71
2022/05/09 02:32:49;;;;;;;;;;;;;;;;;;5093879;28;19909;-71
2022/05/09 02:35:14;;;;;;;;;;;;;;;;;;5093941;28;20371;-71
2022/05/09 02:37:41;;;;;;;;;;;;;;;;;;5093470;28;19915;-71
2022/05/09 02:40:07;;;;;;;;;;;;;;;;;;5093808;28;20463;-71
2022/05/09 02:42:34;;;;;;;;;;;;;;;;;;5094251;28;19913;-71
2022/05/09 02:45:00;;;;;;;;;;;;;;;;;;5093146;28;19920;-71
2022/05/09 02:47:26;;;;;;;;;;;;;;;;;;5075644;28;19919;-71
2022/05/09 02:49:53;;;;;;;;;;;;;;;;;;5093563;28;19954;-71
2022/05/09 02:52:18;;;;;;;;;;;;;;;;;;5075468;28;19909;-71
2022/05/09 02:54:44;;;;;;;;;;;;;;;;;;5093665;28;19908;-71
2022/05/09 02:57:10;;;;;;;;;;;;;;;;;;5093240;28;19908;-71
2022/05/09 02:59:36;;;;;;;;;;;;;;;;;;5093739;28;20313;-71
2022/05/09 03:02:02;;;;;;;;;;;;;;;;;;5093672;28;19940;-71
2022/05/09 03:04:41;;;;;;;;;;;;;;;;;;5093010;28;19923;-71
2022/05/09 03:07:07;;;;;;;;;;;;;;;;;;5093575;28;20426;-71
2022/05/09 03:09:33;;;;;;;;;;;;;;;;;;5093547;28;19908;-71
2022/05/09 03:11:59;;;;;;;;;;;;;;;;;;5093117;28;19908;-71
2022/05/09 03:14:25;;;;;;;;;;;;;;;;;;5093454;28;19996;-72
2022/05/09 03:16:51;;;;;;;;;;;;;;;;;;5093423;28;20005;-71
2022/05/09 03:19:17;;;;;;;;;;;;;;;;;;5093243;28;19908;-71
2022/05/09 03:21:43;;;;;;;;;;;;;;;;;;5093419;28;19908;-71
2022/05/09 03:24:09;;;;;;;;;;;;;;;;;;5093341;28;19916;-71
2022/05/09 03:26:35;;;;;;;;;;;;;;;;;;5093121;28;20492;-71
2022/05/09 03:29:01;;;;;;;;;;;;;;;;;;5093247;28;19908;-71
2022/05/09 03:31:27;;;;;;;;;;;;;;;;;;5095877;28;19908;-71
2022/05/09 03:33:53;;;;;;;;;;;;;;;;;;5096685;28;19915;-71
2022/05/09 03:36:19;;;;;;;;;;;;;;;;;;5097126;28;19908;-70
2022/05/09 03:38:45;;;;;;;;;;;;;;;;;;5097089;28;19916;-71
2022/05/09 03:41:11;;;;;;;;;;;;;;;;;;5096560;28;19954;-71
2022/05/09 03:43:37;;;;;;;;;;;;;;;;;;5096985;28;20284;-70
2022/05/09 03:46:03;;;;;;;;;;;;;;;;;;5096574;28;19912;-71
2022/05/09 03:48:29;;;;;;;;;;;;;;;;;;5096933;28;19915;-70
2022/05/09 03:50:56;;;;;;;;;;;;;;;;;;5096818;28;19940;-70
2022/05/09 03:53:22;;;;;;;;;;;;;;;;;;5096396;28;19924;-70
2022/05/09 03:55:48;;;;;;;;;;;;;;;;;;5096783;28;19908;-71
2022/05/09 03:58:15;;;;;;;;;;;;;;;;;;5096712;28;19995;-70
2022/05/09 04:00:41;;;;;;;;;;;;;;;;;;5096271;28;19981;-71
2022/05/09 04:03:08;;;;;;;;;;;;;;;;;;5097073;28;19914;-71
2022/05/09 04:05:35;;;;;;;;;;;;;;;;;;5096650;28;19990;-71
2022/05/09 04:08:01;;;;;;;;;;;;;;;;;;5096091;28;19908;-71
2022/05/09 04:10:27;;;;;;;;;;;;;;;;;;5096673;28;19948;-71
2022/05/09 04:12:53;;;;;;;;;;;;;;;;;;5096916;28;20396;-71
2022/05/09 04:18:04;;;;;;;;;;;;;;;;;;5096257;28;19931;-70
2022/05/09 04:20:29;;;;;;;;;;;;;;;;;;5096207;28;20368;-71
2022/05/09 04:22:56;;;;;;;;;;;;;;;;;;5095846;28;19912;-71
2022/05/09 04:25:22;;;;;;;;;;;;;;;;;;5096201;28;20269;-71
2022/05/09 04:27:48;;;;;;;;;;;;;;;;;;5096178;28;19931;-71
2022/05/09 04:30:14;;;;;;;;;;;;;;;;;;5095843;28;20327;-68
2022/05/09 04:32:40;;;;;;;;;;;;;;;;;;5077897;28;19951;-69
2022/05/09 04:35:06;;;;;;;;;;;;;;;;;;5077681;28;20007;-68
2022/05/09 04:37:33;;;;;;;;;;;;;;;;;;5077291;28;19995;-68
2022/05/09 04:39:59;;;;;;;;;;;;;;;;;;5077593;28;19908;-68
2022/05/09 04:42:25;;;;;;;;;;;;;;;;;;5077016;28;19912;-68
2022/05/09 04:44:51;;;;;;;;;;;;;;;;;;5095543;28;19972;-68
2022/05/09 04:47:17;;;;;;;;;;;;;;;;;;5095616;28;19908;-68
2022/05/09 04:49:43;;;;;;;;;;;;;;;;;;5093752;28;19908;-68
2022/05/09 04:52:09;;;;;;;;;;;;;;;;;;5094557;28;19912;-68
2022/05/09 04:54:35;;;;;;;;;;;;;;;;;;5095393;28;19908;-68
2022/05/09 04:57:01;;;;;;;;;;;;;;;;;;5095179;28;19908;-68
2022/05/09 04:59:27;;;;;;;;;;;;;;;;;;5076800;28;19908;-69
2022/05/09 05:01:52;;;;;;;;;;;;;;;;;;5094256;28;20002;-69
2022/05/09 05:04:19;;;;;;;;;;;;;;;;;;5075641;28;20391;-68
2022/05/09 05:06:44;;;;;;;;;;;;;;;;;;5094902;28;19912;-68
2022/05/09 05:09:10;;;;;;;;;;;;;;;;;;5104093;28;19918;-66
2022/05/09 05:11:37;;;;;;;;;;;;;;;;;;5111253;28;19908;-68
2022/05/09 05:14:03;;;;;;;;;;;;;;;;;;5113931;28;19912;-68
2022/05/09 05:19:14;;;;;;;;;;;;;;;;;;5087787;28;19998;-67
2022/05/09 05:21:40;;;;;;;;;;;;;;;;;;5090586;28;19930;-67
2022/05/09 05:24:06;;;;;;;;;;;;;;;;;;5078019;28;20461;-67
2022/05/09 05:26:32;;;;;;;;;;;;;;;;;;5084750;28;19912;-66
2022/05/09 05:28:58;;;;;;;;;;;;;;;;;;5084905;28;19919;-66
2022/05/09 05:31:24;;;;;;;;;;;;;;;;;;5092623;28;19961;-66
2022/05/09 05:34:16;;;;;;;;;;;;;;;;;;5086596;27;19921;-64
2022/05/09 05:36:42;;;;;;;;;;;;;;;;;;5081608;28;19912;-66
2022/05/09 05:39:13;;;;;;;;;;;;;;;;;;5074983;28;20011;-66
2022/05/09 05:41:39;;;;;;;;;;;;;;;;;;5066497;28;19909;-66
2022/05/09 05:44:08;;;;;;;;;;;;;;;;;;5078165;28;20218;-70
2022/05/09 05:46:34;;;;;;;;;;;;;;;;;;5088335;28;19908;-70
2022/05/09 05:51:00;;;;;;;;;;;;;;;;;;5088530;28;19916;-69
2022/05/09 05:53:28;;;;;;;;;;;;;;;;;;5090005;28;19913;-67
2022/05/09 05:55:54;;;;;;;;;;;;;;;;;;5090209;28;20331;-67
2022/05/09 05:59:35;;;;;;;;;;;;;;;;;;5089076;27;20521;-68
2022/05/09 06:05:31;;;;;;;;;;;;;;;;;;5088332;27;19913;-68
2022/05/09 06:10:43;;;;;;;;;;;;;;;;;;5089690;27;19917;-68
2022/05/09 06:14:06;;;;;;;;;;;;;;;;;;5129234;27;19922;-68
2022/05/09 06:16:32;;;;;;;;;;;;;;;;;;5129537;28;19915;-69
2022/05/09 06:19:51;;;;;;;;;;;;;;;;;;5088788;27;19917;-66
2022/05/09 06:27:36;;;;;;;;;;;;;;;;;;5108438;27;19934;-67
2022/05/09 06:30:02;;;;;;;;;;;;;;;;;;5105423;28;19911;-69
2022/05/09 06:32:28;;;;;;;;;;;;;;;;;;5101574;28;20505;-67
2022/05/09 06:35:24;;;;;;;;;;;;;;;;;;5084911;27;19921;-65
2022/05/09 06:40:17;;;;;;;;;;;;;;;;;;5086245;27;19917;-66
2022/05/09 06:43:07;;;;;;;;;;;;;;;;;;5087436;27;19934;-68
2022/05/09 06:45:33;;;;;;;;;;;;;;;;;;5074911;28;20019;-67
2022/05/09 06:50:53;;;;;;;;;;;;;;;;;;5084972;27;19917;-66
2022/05/09 06:53:19;;;;;;;;;;;;;;;;;;5085103;28;19955;-65
2022/05/09 06:55:45;;;;;;;;;;;;;;;;;;5088186;28;19958;-66
2022/05/09 06:58:11;;;;;;;;;;;;;;;;;;5086572;28;19975;-67
2022/05/09 07:00:37;;;;;;;;;;;;;;;;;;5080291;28;19916;-66
2022/05/09 07:03:03;;;;;;;;;;;;;;;;;;5079667;28;19982;-67
2022/05/09 07:05:29;;;;;;;;;;;;;;;;;;5082213;28;19955;-67
2022/05/09 07:08:34;;;;;;;;;;;;;;;;;;5077525;28;20368;-67
2022/05/09 07:11:00;;;;;;;;;;;;;;;;;;5083061;28;19948;-67
2022/05/09 07:20:50;;;;;;;;;;;;;;;;;;5087812;27;19923;-65
2022/05/09 07:23:17;;;;;;;;;;;;;;;;;;5096280;28;19912;-65
2022/05/09 07:26:00;;;;;;;;;;;;;;;;;;5081338;27;20256;-66
2022/05/09 07:32:52;;;;;;;;;;;;;;;;;;5088433;27;20038;-66
2022/05/09 07:37:54;;;;;;;;;;;;;;;;;;5085905;27;19927;-64
2022/05/09 07:40:20;;;;;;;;;;;;;;;;;;5085351;28;19920;-64
2022/05/09 07:42:46;;;;;;;;;;;;;;;;;;5084645;28;19913;-66
2022/05/09 07:48:03;;;;;;;;;;;;;;;;;;5148357;27;19918;-67
2022/05/09 07:51:40;;;;;;;;;;;;;;;;;;5086370;27;19927;-66
2022/05/09 07:54:06;;;;;;;;;;;;;;;;;;5089355;28;19912;-65
2022/05/09 07:56:32;;;;;;;;;;;;;;;;;;5088797;28;20725;-66
2022/05/09 07:58:59;;;;;;;;;;;;;;;;;;5089312;28;19909;-66
2022/05/09 08:01:44;;;;;;;;;;;;;;;;;;5067790;27;2234725;-65
2022/05/09 08:04:10;;;;;;;;;;;;;;;;;;5128085;28;20319;-66
2022/05/09 08:08:16;;;;;;;;;;;;;;;;;;5087178;27;20432;-65
2022/05/09 08:10:42;;;;;;;;;;;;;;;;;;5102785;28;19922;-66
2022/05/09 08:13:08;;;;;;;;;;;;;;;;;;5108790;28;19947;-66
2022/05/09 08:15:34;;;;;;;;;;;;;;;;;;5106984;28;19958;-65
2022/05/09 08:18:01;;;;;;;;;;;;;;;;;;5110253;28;19912;-65
2022/05/09 08:20:28;;;;;;;;;;;;;;;;;;5106385;28;19908;-66
2022/05/09 08:22:55;;;;;;;;;;;;;;;;;;5099233;28;20411;-66
2022/05/09 08:25:21;;;;;;;;;;;;;;;;;;5085935;28;19999;-67
2022/05/09 08:31:03;;;;;;;;;;;;;;;;;;5082984;27;19919;-65
2022/05/09 08:33:30;;;;;;;;;;;;;;;;;;5083049;28;20006;-64
2022/05/09 08:39:41;;;;;;;;;;;;;;;;;;5087160;28;20420;-65
2022/05/09 08:44:31;;;;;;;;;;;;;;;;;;5097176;27;19934;-65
2022/05/09 08:46:58;;;;;;;;;;;;;;;;;;5081711;28;19948;-66
2022/05/09 08:49:42;;;;;;;;;;;;;;;;;;5083599;28;19927;-64
2022/05/09 08:52:08;;;;;;;;;;;;;;;;;;5080548;28;20368;-65
2022/05/09 08:56:12;;;;;;;;;;;;;;;;;;5108393;27;20301;-65
2022/05/09 08:58:39;;;;;;;;;;;;;;;;;;5106457;28;19923;-66
2022/05/09 09:01:05;;;;;;;;;;;;;;;;;;5108180;28;19912;-67
2022/05/09 09:03:31;;;;;;;;;;;;;;;;;;5094627;28;19916;-66
2022/05/09 09:06:33;;;;;;;;;;;;;;;;;;5082550;27;19925;-66
2022/05/09 09:11:24;;;;;;;;;;;;;;;;;;5087996;27;19923;-64
2022/05/09 09:14:30;;;;;;;;;;;;;;;;;;5078297;28;19931;-66
2022/05/09 09:16:56;;;;;;;;;;;;;;;;;;5068320;28;19956;-66
2022/05/09 09:21:52;;;;;;;;;;;;;;;;;;5087095;27;19920;-66
2022/05/09 09:25:20;;;;;;;;;;;;;;;;;;5087704;27;20473;-67
2022/05/09 09:27:46;;;;;;;;;;;;;;;;;;5070728;28;19913;-71
2022/05/09 09:30:13;;;;;;;;;;;;;;;;;;5069565;28;20661;-70
2022/05/09 09:33:48;;;;;;;;;;;;;;;;;;5087399;27;19921;-71
2022/05/09 09:36:14;;;;;;;;;;;;;;;;;;5080554;28;19913;-73
2022/05/09 09:41:14;;;;;;;;;;;;;;;;;;5087312;28;19927;-70
2022/05/09 09:47:33;;;;;;;;;;;;;;;;;;5087004;27;19917;-72
2022/05/09 09:51:46;;;;;;;;;;;;;;;;;;5137056;27;19919;-71
2022/05/09 09:54:13;;;;;;;;;;;;;;;;;;5127594;27;19923;-72
2022/05/09 09:56:39;;;;;;;;;;;;;;;;;;5100628;28;19957;-73
2022/05/09 09:59:05;;;;;;;;;;;;;;;;;;5122536;27;19916;-72
2022/05/09 10:01:32;;;;;;;;;;;;;;;;;;5123950;28;19973;-72
2022/05/09 10:03:58;;;;;;;;;;;;;;;;;;5125237;27;19916;-72
2022/05/09 10:06:24;;;;;;;;;;;;;;;;;;5126378;28;19916;-72
2022/05/09 10:09:07;;;;;;;;;;;;;;;;;;5077215;28;19931;-72
2022/05/09 10:12:02;;;;;;;;;;;;;;;;;;5108682;27;19912;-70
2022/05/09 10:14:28;;;;;;;;;;;;;;;;;;5103228;28;19935;-70
2022/05/09 10:16:55;;;;;;;;;;;;;;;;;;5088708;28;20003;-73
2022/05/09 10:19:40;;;;;;;;;;;;;;;;;;5149946;27;19912;-71
2022/05/09 10:26:00;;;;;;;;;;;;;;;;;;5089510;27;19916;-72
2022/05/09 10:30:30;;;;;;;;;;;;;;;;;;5109077;27;19918;-72
2022/05/09 10:35:14;;;;;;;;;;;;;;;;;;5102370;27;19922;-71
2022/05/09 10:37:40;;;;;;;;;;;;;;;;;;5105202;28;19912;-72
2022/05/09 10:40:06;;;;;;;;;;;;;;;;;;5108323;28;19908;-71
2022/05/09 10:44:54;;;;;;;;;;;;;;;;;;5087970;27;20284;-71
2022/05/09 10:47:20;;;;;;;;;;;;;;;;;;5077440;28;19913;-71
2022/05/09 10:49:46;;;;;;;;;;;;;;;;;;5085714;28;19995;-71
2022/05/09 10:52:12;;;;;;;;;;;;;;;;;;5087860;28;20388;-70
2022/05/09 10:54:38;;;;;;;;;;;;;;;;;;5088948;28;19954;-70
2022/05/09 10:57:04;;;;;;;;;;;;;;;;;;5093894;28;19944;-69
2022/05/09 10:59:30;;;;;;;;;;;;;;;;;;5109216;28;19914;-70
2022/05/09 11:01:57;;;;;;;;;;;;;;;;;;5090293;28;19953;-71
2022/05/09 11:04:23;;;;;;;;;;;;;;;;;;5089071;28;19967;-68
2022/05/09 11:06:48;;;;;;;;;;;;;;;;;;5082505;28;19947;-69
2022/05/09 11:11:08;;;;;;;;;;;;;;;;;;5088461;27;19923;-70
2022/05/09 11:13:34;;;;;;;;;;;;;;;;;;5089151;28;19916;-71
2022/05/09 11:16:00;;;;;;;;;;;;;;;;;;5084595;28;19970;-69
2022/05/09 11:18:26;;;;;;;;;;;;;;;;;;5084279;28;19919;-70
2022/05/09 11:20:52;;;;;;;;;;;;;;;;;;5086418;28;19915;-72
2022/05/09 11:23:18;;;;;;;;;;;;;;;;;;5088171;28;20007;-72
2022/05/09 11:25:44;;;;;;;;;;;;;;;;;;5087648;28;20399;-64
2022/05/09 11:28:10;;;;;;;;;;;;;;;;;;5089231;28;19908;-67
2022/05/09 11:30:36;;;;;;;;;;;;;;;;;;5090144;28;20340;-68
2022/05/09 11:33:02;;;;;;;;;;;;;;;;;;5089952;28;20050;-66
2022/05/09 11:35:28;;;;;;;;;;;;;;;;;;5109358;28;20007;-67
2022/05/09 11:37:54;;;;;;;;;;;;;;;;;;5109625;28;20383;-67
2022/05/09 11:40:21;;;;;;;;;;;;;;;;;;5097358;28;19916;-68
2022/05/09 11:45:32;;;;;;;;;;;;;;;;;;5086709;28;19920;-68
2022/05/09 11:47:58;;;;;;;;;;;;;;;;;;5082843;28;19909;-67
2022/05/09 11:50:24;;;;;;;;;;;;;;;;;;5089664;28;20285;-67
2022/05/09 11:52:51;;;;;;;;;;;;;;;;;;5089664;28;20261;-68
2022/05/09 11:55:18;;;;;;;;;;;;;;;;;;5088879;28;19924;-67
2022/05/09 11:57:44;;;;;;;;;;;;;;;;;;5089897;28;19909;-67
2022/05/09 12:00:10;;;;;;;;;;;;;;;;;;5088653;28;19912;-66
2022/05/09 12:02:36;;;;;;;;;;;;;;;;;;5089841;28;19951;-67
2022/05/09 12:05:02;;;;;;;;;;;;;;;;;;5089591;28;19909;-66
2022/05/09 12:07:28;;;;;;;;;;;;;;;;;;5087895;28;19923;-67
2022/05/09 12:09:54;;;;;;;;;;;;;;;;;;5089271;28;20318;-67
2022/05/09 12:12:20;;;;;;;;;;;;;;;;;;5089529;28;19916;-67
2022/05/09 12:14:46;;;;;;;;;;;;;;;;;;5089320;28;20343;-65
2022/05/09 12:17:12;;;;;;;;;;;;;;;;;;5088838;28;20348;-67
2022/05/09 12:19:38;;;;;;;;;;;;;;;;;;5087998;28;19979;-68
2022/05/09 12:22:04;;;;;;;;;;;;;;;;;;5075862;28;20299;-68
2022/05/09 12:24:30;;;;;;;;;;;;;;;;;;5072343;28;19916;-72
2022/05/09 12:26:56;;;;;;;;;;;;;;;;;;5074423;28;19963;-71
2022/05/09 12:29:24;;;;;;;;;;;;;;;;;;5074693;28;19951;-71
2022/05/09 12:31:50;;;;;;;;;;;;;;;;;;5079368;28;20054;-70
2022/05/09 12:34:16;;;;;;;;;;;;;;;;;;5075079;28;19999;-70
2022/05/09 12:36:44;;;;;;;;;;;;;;;;;;5073352;28;20424;-71
2022/05/09 12:39:10;;;;;;;;;;;;;;;;;;5073521;28;19908;-69
2022/05/09 12:41:36;;;;;;;;;;;;;;;;;;5071723;28;19929;-73
2022/05/09 12:44:02;;;;;;;;;;;;;;;;;;5073841;28;19908;-72
2022/05/09 12:46:28;;;;;;;;;;;;;;;;;;5073866;28;19919;-73
2022/05/09 12:48:54;;;;;;;;;;;;;;;;;;5072918;28;20357;-73
2022/05/09 12:51:20;;;;;;;;;;;;;;;;;;5075759;28;19916;-69
2022/05/09 12:53:46;;;;;;;;;;;;;;;;;;5075551;28;20304;-68
2022/05/09 12:56:12;;;;;;;;;;;;;;;;;;5075374;28;19915;-69
2022/05/09 12:58:38;;;;;;;;;;;;;;;;;;5076356;28;19912;-69
2022/05/09 13:01:04;;;;;;;;;;;;;;;;;;5075885;28;19978;-69
2022/05/09 13:03:30;;;;;;;;;;;;;;;;;;5075386;28;20368;-69
2022/05/09 13:05:56;;;;;;;;;;;;;;;;;;5075871;28;19909;-69
2022/05/09 13:08:25;;;;;;;;;;;;;;;;;;5074291;28;19987;-69
2022/05/09 13:10:51;;;;;;;;;;;;;;;;;;5075272;28;20285;-69
2022/05/09 13:13:17;;;;;;;;;;;;;;;;;;5075736;28;20075;-69
2022/05/09 13:15:43;;;;;;;;;;;;;;;;;;5075052;28;20002;-69
2022/05/09 13:18:09;;;;;;;;;;;;;;;;;;5075817;28;19908;-69
2022/05/09 13:20:35;;;;;;;;;;;;;;;;;;5075751;28;20257;-69
2022/05/09 13:23:01;;;;;;;;;;;;;;;;;;5074905;28;19909;-70
2022/05/09 13:25:27;;;;;;;;;;;;;;;;;;5075227;28;19912;-69
2022/05/09 13:27:53;;;;;;;;;;;;;;;;;;5073956;28;19915;-69
2022/05/09 13:30:19;;;;;;;;;;;;;;;;;;5074995;28;20008;-69
2022/05/09 13:32:45;;;;;;;;;;;;;;;;;;5074483;28;20341;-69
2022/05/09 13:35:11;;;;;;;;;;;;;;;;;;5075043;28;19909;-68
2022/05/09 13:37:37;;;;;;;;;;;;;;;;;;5074546;28;20364;-68
2022/05/09 13:40:03;;;;;;;;;;;;;;;;;;5074921;28;19962;-69
2022/05/09 13:42:31;;;;;;;;;;;;;;;;;;5074920;28;20250;-69
2022/05/09 13:44:57;;;;;;;;;;;;;;;;;;5074546;28;20034;-69
2022/05/09 13:47:23;;;;;;;;;;;;;;;;;;5074868;28;19951;-69
2022/05/09 13:49:49;;;;;;;;;;;;;;;;;;5074656;28;19952;-69
2022/05/09 13:52:15;;;;;;;;;;;;;;;;;;5074472;28;19954;-69
2022/05/09 13:54:41;;;;;;;;;;;;;;;;;;5074680;28;19908;-69
2022/05/09 13:57:07;;;;;;;;;;;;;;;;;;5074650;28;19937;-69
2022/05/09 13:59:34;;;;;;;;;;;;;;;;;;5073989;28;19908;-69
2022/05/09 14:02:00;;;;;;;;;;;;;;;;;;5073202;28;20292;-69
2022/05/09 14:04:26;;;;;;;;;;;;;;;;;;5074439;28;19909;-68
2022/05/09 14:06:52;;;;;;;;;;;;;;;;;;5074097;28;19908;-68
2022/05/09 14:09:18;;;;;;;;;;;;;;;;;;5074402;28;20392;-68
2022/05/09 14:11:44;;;;;;;;;;;;;;;;;;5074308;28;19931;-69
2022/05/09 14:14:10;;;;;;;;;;;;;;;;;;5073861;28;19908;-68
2022/05/09 14:16:36;;;;;;;;;;;;;;;;;;5074210;28;19995;-69
2022/05/09 14:19:02;;;;;;;;;;;;;;;;;;5073805;28;19908;-68
2022/05/09 14:21:28;;;;;;;;;;;;;;;;;;5074141;28;19995;-68
2022/05/09 14:23:54;;;;;;;;;;;;;;;;;;5073061;28;19970;-68
2022/05/09 14:31:49;;;;;;;;;;;;;;;;;;5074201;28;20004;-70
2022/05/09 14:34:15;;;;;;;;;;;;;;;;;;5073698;28;19951;-69
2022/05/09 14:36:42;;;;;;;;;;;;;;;;;;5074217;28;19915;-69
2022/05/09 14:39:08;;;;;;;;;;;;;;;;;;5073895;28;19994;-69
2022/05/09 14:41:37;;;;;;;;;;;;;;;;;;5073269;28;19995;-69
2022/05/09 14:44:03;;;;;;;;;;;;;;;;;;5073435;28;19915;-70
2022/05/09 14:46:29;;;;;;;;;;;;;;;;;;5073722;28;19943;-70
2022/05/09 14:48:55;;;;;;;;;;;;;;;;;;5073211;28;19954;-70
2022/05/09 14:51:21;;;;;;;;;;;;;;;;;;5074063;28;19908;-69
2022/05/09 14:53:47;;;;;;;;;;;;;;;;;;5073722;28;19961;-69
2022/05/09 14:58:58;;;;;;;;;;;;;;;;;;5073723;28;19978;-69
2022/05/09 15:01:27;;;;;;;;;;;;;;;;;;5073175;28;19908;-69
2022/05/09 15:03:53;;;;;;;;;;;;;;;;;;5073643;28;20276;-69
2022/05/09 15:06:19;;;;;;;;;;;;;;;;;;5073577;28;19913;-69
2022/05/09 15:08:45;;;;;;;;;;;;;;;;;;5073009;28;20010;-68
2022/05/09 15:11:11;;;;;;;;;;;;;;;;;;5074177;28;19916;-69
2022/05/09 15:13:38;;;;;;;;;;;;;;;;;;5073503;28;20353;-69
2022/05/09 15:16:04;;;;;;;;;;;;;;;;;;5073131;28;19908;-69
2022/05/09 15:18:30;;;;;;;;;;;;;;;;;;5073813;28;20371;-69
2022/05/09 15:20:56;;;;;;;;;;;;;;;;;;5073680;28;19908;-69
2022/05/09 15:23:22;;;;;;;;;;;;;;;;;;5072997;28;19961;-70
2022/05/09 15:25:48;;;;;;;;;;;;;;;;;;5073348;28;19909;-69
2022/05/09 15:28:14;;;;;;;;;;;;;;;;;;5073378;28;19915;-70
2022/05/09 15:30:40;;;;;;;;;;;;;;;;;;5073073;28;19916;-70
2022/05/09 15:33:06;;;;;;;;;;;;;;;;;;5073304;28;20318;-70
2022/05/09 15:35:32;;;;;;;;;;;;;;;;;;5073683;28;19916;-69
2022/05/09 15:38:01;;;;;;;;;;;;;;;;;;5073050;28;19915;-69
2022/05/09 15:40:27;;;;;;;;;;;;;;;;;;5073082;28;19967;-69
2022/05/09 15:42:53;;;;;;;;;;;;;;;;;;5073133;28;19909;-69
2022/05/09 15:45:19;;;;;;;;;;;;;;;;;;5073167;28;19974;-69
2022/05/09 15:47:45;;;;;;;;;;;;;;;;;;5073442;28;19947;-69
2022/05/09 15:50:11;;;;;;;;;;;;;;;;;;5073316;28;19917;-70
2022/05/09 15:52:37;;;;;;;;;;;;;;;;;;5071464;28;19919;-69
2022/05/09 15:55:03;;;;;;;;;;;;;;;;;;5073140;28;19908;-69
2022/05/09 15:57:29;;;;;;;;;;;;;;;;;;5075803;28;19955;-70
2022/05/09 15:59:56;;;;;;;;;;;;;;;;;;5076921;28;19908;-69
2022/05/09 16:02:22;;;;;;;;;;;;;;;;;;5077332;28;20011;-70
2022/05/09 16:04:48;;;;;;;;;;;;;;;;;;5076218;28;19947;-70
2022/05/09 16:12:43;;;;;;;;;;;;;;;;;;5076187;28;20436;-69
2022/05/09 16:15:09;;;;;;;;;;;;;;;;;;5076650;28;19967;-69
2022/05/09 16:17:35;;;;;;;;;;;;;;;;;;5076583;28;19931;-69
2022/05/09 16:20:02;;;;;;;;;;;;;;;;;;5076062;28;20383;-69
2022/05/09 16:22:28;;;;;;;;;;;;;;;;;;5076482;28;19912;-69
2022/05/09 16:24:54;;;;;;;;;;;;;;;;;;5076576;28;19909;-70
2022/05/09 16:27:20;;;;;;;;;;;;;;;;;;5075945;28;19908;-70
2022/05/09 16:29:46;;;;;;;;;;;;;;;;;;5076279;28;19923;-69
2022/05/09 16:32:13;;;;;;;;;;;;;;;;;;5076161;28;19909;-69
2022/05/09 16:34:39;;;;;;;;;;;;;;;;;;5075837;28;19916;-69
2022/05/09 16:37:08;;;;;;;;;;;;;;;;;;5076229;28;19908;-69
2022/05/09 16:39:34;;;;;;;;;;;;;;;;;;5076560;28;19908;-69
2022/05/09 16:42:03;;;;;;;;;;;;;;;;;;5075694;28;19940;-69
2022/05/09 16:44:29;;;;;;;;;;;;;;;;;;5076062;28;19917;-69
2022/05/09 16:46:55;;;;;;;;;;;;;;;;;;5075652;28;19909;-69
2022/05/09 16:49:21;;;;;;;;;;;;;;;;;;5076076;28;19923;-69
2022/05/09 16:51:47;;;;;;;;;;;;;;;;;;5075888;28;20372;-69
2022/05/09 16:54:13;;;;;;;;;;;;;;;;;;5075432;28;19908;-68
2022/05/09 16:56:39;;;;;;;;;;;;;;;;;;5075851;28;19978;-68
2022/05/09 16:59:55;;;;;;;;;;;;;;;;;;5132350;27;19912;-69
2022/05/09 17:02:21;;;;;;;;;;;;;;;;;;5131813;28;19965;-69
2022/05/09 17:11:31;;;;;;;;;;;;;;;;;;5091361;27;20308;-68
2022/05/09 17:13:57;;;;;;;;;;;;;;;;;;5091286;28;20323;-68
2022/05/09 17:16:23;;;;;;;;;;;;;;;;;;5090766;28;19908;-68
2022/05/09 17:18:48;;;;;;;;;;;;;;;;;;5091043;28;19909;-68
2022/05/09 17:21:14;;;;;;;;;;;;;;;;;;5090977;28;19912;-68
2022/05/09 17:23:41;;;;;;;;;;;;;;;;;;5090625;28;20442;-68
2022/05/09 17:26:08;;;;;;;;;;;;;;;;;;5090913;28;19961;-69
2022/05/09 17:28:34;;;;;;;;;;;;;;;;;;5091151;28;19909;-70
2022/05/09 17:31:00;;;;;;;;;;;;;;;;;;5090348;28;19916;-69
2022/05/09 17:35:00;;;;;;;;;;;;;;;;;;5111526;27;19912;-68
2022/05/09 17:37:26;;;;;;;;;;;;;;;;;;5111094;28;20463;-69
2022/05/09 17:39:52;;;;;;;;;;;;;;;;;;5111331;28;19994;-69
2022/05/09 17:42:50;;;;;;;;;;;;;;;;;;5091736;28;19916;-68
2022/05/09 17:45:16;;;;;;;;;;;;;;;;;;5090783;28;19923;-68
2022/05/09 17:47:42;;;;;;;;;;;;;;;;;;5091126;28;20386;-68
2022/05/09 17:50:08;;;;;;;;;;;;;;;;;;5090791;28;19909;-69
2022/05/09 17:53:19;;;;;;;;;;;;;;;;;;5091498;27;19919;-68
2022/05/09 17:57:42;;;;;;;;;;;;;;;;;;5091309;27;19923;-68
2022/05/09 18:00:08;;;;;;;;;;;;;;;;;;5091098;28;19995;-68
2022/05/09 18:02:34;;;;;;;;;;;;;;;;;;5091235;28;19943;-71
2022/05/09 18:05:56;;;;;;;;;;;;;;;;;;5152440;27;20474;-69
2022/05/09 18:08:22;;;;;;;;;;;;;;;;;;5152595;27;19919;-69
2022/05/09 18:12:58;;;;;;;;;;;;;;;;;;5090840;27;20303;-68
2022/05/09 18:15:26;;;;;;;;;;;;;;;;;;5091075;28;19913;-68
2022/05/09 18:17:53;;;;;;;;;;;;;;;;;;5090979;28;19909;-68
2022/05/09 18:20:19;;;;;;;;;;;;;;;;;;5090514;28;19954;-68
2022/05/09 18:22:45;;;;;;;;;;;;;;;;;;5090894;28;19969;-69
2022/05/09 18:25:11;;;;;;;;;;;;;;;;;;5090507;28;19976;-69
2022/05/09 18:27:36;;;;;;;;;;;;;;;;;;5090748;28;19909;-69
2022/05/09 18:30:02;;;;;;;;;;;;;;;;;;5090922;28;19908;-69
2022/05/09 18:32:29;;;;;;;;;;;;;;;;;;5090186;28;20472;-68
2022/05/09 18:34:55;;;;;;;;;;;;;;;;;;5090752;28;20038;-68
2022/05/09 18:40:55;;;;;;;;;;;;;;;;;;5091006;27;19916;-69
2022/05/09 18:43:21;;;;;;;;;;;;;;;;;;5089830;28;19999;-68
2022/05/09 18:47:41;;;;;;;;;;;;;;;;;;5091162;27;19916;-68
2022/05/09 18:54:22;;;;;;;;;;;;;;;;;;5090889;28;19961;-69